createdAt,value
2017-09-05T00:00:11.946Z,14.6
2017-09-05T00:01:14.368Z,14.6
2017-09-05T00:02:16.787Z,14.6
2017-09-05T00:03:19.201Z,14.6
2017-09-05T00:04:21.621Z,14.6
2017-09-05T00:05:24.043Z,14.7
2017-09-05T00:06:26.460Z,14.6
2017-09-05T00:07:28.885Z,14.6
2017-09-05T00:08:31.314Z,14.7
2017-09-05T00:09:33.738Z,14.7
2017-09-05T00:10:36.156Z,14.7
2017-09-05T00:11:38.577Z,14.7
2017-09-05T00:12:40.995Z,14.8
2017-09-05T00:13:43.422Z,14.8
2017-09-05T00:14:45.849Z,14.8
2017-09-05T00:15:48.255Z,14.8
2017-09-05T00:16:50.678Z,14.9
2017-09-05T00:17:53.110Z,14.9
2017-09-05T00:18:55.531Z,14.9
2017-09-05T00:19:57.959Z,14.9
2017-09-05T00:21:00.383Z,14.9
2017-09-05T00:22:02.801Z,14.9
2017-09-05T00:23:05.225Z,14.8
2017-09-05T00:24:07.647Z,14.8
2017-09-05T00:25:10.062Z,14.8
2017-09-05T00:26:12.486Z,14.8
2017-09-05T00:27:14.922Z,14.8
2017-09-05T00:28:17.341Z,14.8
2017-09-05T00:29:19.759Z,14.8
2017-09-05T00:30:22.176Z,14.8
2017-09-05T00:31:24.601Z,14.7
2017-09-05T00:32:27.026Z,14.7
2017-09-05T00:33:29.446Z,14.7
2017-09-05T00:34:31.863Z,14.7
2017-09-05T00:35:34.289Z,14.7
2017-09-05T00:36:36.714Z,14.7
2017-09-05T00:37:39.141Z,14.7
2017-09-05T00:38:41.564Z,14.7
2017-09-05T00:39:43.995Z,14.6
2017-09-05T00:40:46.410Z,14.7
2017-09-05T00:41:49.172Z,14.6
2017-09-05T00:42:51.593Z,14.6
2017-09-05T00:43:54.018Z,14.6
2017-09-05T00:44:56.437Z,14.6
2017-09-05T00:45:58.855Z,14.5
2017-09-05T00:47:01.275Z,14.5
2017-09-05T00:48:03.701Z,14.5
2017-09-05T00:49:06.126Z,14.5
2017-09-05T00:50:08.552Z,14.5
2017-09-05T00:51:10.965Z,14.5
2017-09-05T00:52:13.390Z,14.4
2017-09-05T00:53:16.150Z,14.4
2017-09-05T00:54:18.568Z,14.4
2017-09-05T00:55:20.991Z,14.4
2017-09-05T00:56:23.410Z,14.4
2017-09-05T00:57:25.827Z,14.4
2017-09-05T00:58:28.260Z,14.4
2017-09-05T00:59:30.687Z,14.5
2017-09-05T01:00:33.110Z,14.5
2017-09-05T01:01:35.533Z,14.4
2017-09-05T01:02:37.952Z,14.4
2017-09-05T01:03:40.376Z,14.4
2017-09-05T01:04:42.830Z,14.4
2017-09-05T01:05:45.249Z,14.4
2017-09-05T01:06:47.665Z,14.5
2017-09-05T01:07:50.084Z,14.4
2017-09-05T01:08:52.505Z,14.5
2017-09-05T01:09:54.925Z,14.4
2017-09-05T01:10:57.346Z,14.4
2017-09-05T01:11:59.764Z,14.5
2017-09-05T01:13:02.194Z,14.4
2017-09-05T01:14:04.611Z,14.4
2017-09-05T01:15:07.033Z,14.5
2017-09-05T01:16:09.457Z,14.5
2017-09-05T01:17:11.871Z,14.4
2017-09-05T01:18:14.295Z,14.4
2017-09-05T01:19:16.721Z,14.4
2017-09-05T01:20:19.483Z,14.4
2017-09-05T01:21:21.912Z,14.4
2017-09-05T01:22:24.327Z,14.4
2017-09-05T01:23:26.745Z,14.4
2017-09-05T01:24:29.175Z,14.4
2017-09-05T01:25:31.595Z,14.4
2017-09-05T01:26:34.009Z,14.4
2017-09-05T01:27:36.431Z,14.4
2017-09-05T01:28:38.859Z,14.4
2017-09-05T01:29:41.275Z,14.4
2017-09-05T01:30:43.702Z,14.4
2017-09-05T01:31:46.115Z,14.4
2017-09-05T01:32:48.533Z,14.4
2017-09-05T01:33:50.970Z,14.3
2017-09-05T01:34:53.390Z,14.3
2017-09-05T01:35:55.810Z,14.4
2017-09-05T01:36:58.237Z,14.3
2017-09-05T01:38:00.654Z,14.3
2017-09-05T01:39:03.073Z,14.4
2017-09-05T01:40:05.488Z,14.3
2017-09-05T01:41:07.917Z,14.3
2017-09-05T01:42:10.341Z,14.3
2017-09-05T01:43:12.767Z,14.3
2017-09-05T01:44:15.184Z,14.3
2017-09-05T01:45:17.614Z,14.3
2017-09-05T01:46:20.030Z,14.3
2017-09-05T01:47:22.456Z,14.3
2017-09-05T01:48:24.866Z,14.3
2017-09-05T01:49:27.283Z,14.3
2017-09-05T01:50:29.711Z,14.3
2017-09-05T01:51:32.129Z,14.3
2017-09-05T01:52:34.548Z,14.3
2017-09-05T01:53:37.301Z,14.3
2017-09-05T01:54:39.718Z,14.2
2017-09-05T01:55:42.146Z,14.3
2017-09-05T01:56:44.564Z,14.2
2017-09-05T01:57:46.977Z,14.3
2017-09-05T01:58:49.408Z,14.2
2017-09-05T01:59:51.829Z,14.3
2017-09-05T02:00:54.255Z,14.3
2017-09-05T02:01:57.021Z,14.3
2017-09-05T02:02:59.445Z,14.2
2017-09-05T02:04:02.206Z,14.3
2017-09-05T02:05:04.639Z,14.3
2017-09-05T02:06:07.060Z,14.3
2017-09-05T02:07:09.479Z,14.3
2017-09-05T02:08:12.240Z,14.3
2017-09-05T02:09:14.660Z,14.3
2017-09-05T02:10:17.074Z,14.3
2017-09-05T02:11:19.497Z,14.3
2017-09-05T02:12:21.929Z,14.3
2017-09-05T02:13:24.342Z,14.3
2017-09-05T02:14:26.772Z,14.3
2017-09-05T02:15:29.194Z,14.3
2017-09-05T02:16:31.615Z,14.3
2017-09-05T02:17:34.035Z,14.3
2017-09-05T02:18:36.459Z,14.3
2017-09-05T02:19:38.869Z,14.2
2017-09-05T02:20:41.295Z,14.2
2017-09-05T02:21:43.708Z,14.2
2017-09-05T02:22:46.470Z,14.2
2017-09-05T02:23:48.897Z,14.2
2017-09-05T02:24:51.315Z,14.2
2017-09-05T02:25:53.744Z,14.1
2017-09-05T02:26:56.167Z,14.1
2017-09-05T02:27:58.590Z,14.1
2017-09-05T02:29:01.017Z,14.1
2017-09-05T02:30:03.436Z,14.1
2017-09-05T02:31:05.846Z,14.1
2017-09-05T02:32:08.616Z,14.1
2017-09-05T02:33:11.036Z,14.1
2017-09-05T02:34:13.452Z,14.1
2017-09-05T02:35:15.867Z,14.1
2017-09-05T02:36:18.296Z,14
2017-09-05T02:37:20.719Z,14.1
2017-09-05T02:38:23.132Z,14
2017-09-05T02:39:25.898Z,14
2017-09-05T02:40:28.324Z,14.1
2017-09-05T02:41:30.750Z,14
2017-09-05T02:42:33.173Z,14
2017-09-05T02:43:35.590Z,14.1
2017-09-05T02:44:38.009Z,14
2017-09-05T02:45:40.443Z,14.1
2017-09-05T02:46:42.864Z,14.1
2017-09-05T02:47:45.281Z,14.1
2017-09-05T02:48:47.705Z,14.1
2017-09-05T02:49:50.126Z,14
2017-09-05T02:50:52.544Z,14
2017-09-05T02:51:54.966Z,14.1
2017-09-05T02:52:57.732Z,14.1
2017-09-05T02:54:00.153Z,14.1
2017-09-05T02:55:02.576Z,14.1
2017-09-05T02:56:04.994Z,14.1
2017-09-05T02:57:07.420Z,14.1
2017-09-05T02:58:09.847Z,14
2017-09-05T02:59:12.601Z,14
2017-09-05T03:00:15.021Z,14
2017-09-05T03:01:17.780Z,14
2017-09-05T03:02:20.206Z,14
2017-09-05T03:03:22.632Z,14
2017-09-05T03:04:25.047Z,14
2017-09-05T03:05:27.461Z,14
2017-09-05T03:06:29.882Z,14
2017-09-05T03:07:32.302Z,14
2017-09-05T03:08:34.724Z,13.9
2017-09-05T03:09:37.144Z,13.9
2017-09-05T03:10:39.566Z,13.9
2017-09-05T03:11:41.981Z,13.9
2017-09-05T03:12:44.410Z,13.9
2017-09-05T03:13:46.830Z,13.9
2017-09-05T03:14:49.252Z,13.9
2017-09-05T03:15:51.669Z,13.9
2017-09-05T03:16:54.085Z,13.9
2017-09-05T03:17:56.509Z,13.9
2017-09-05T03:18:58.930Z,13.9
2017-09-05T03:20:01.342Z,13.9
2017-09-05T03:21:04.124Z,13.9
2017-09-05T03:22:06.884Z,13.9
2017-09-05T03:23:09.335Z,13.9
2017-09-05T03:24:11.724Z,13.9
2017-09-05T03:25:14.147Z,13.9
2017-09-05T03:26:16.555Z,13.9
2017-09-05T03:27:18.983Z,13.9
2017-09-05T03:28:21.399Z,13.9
2017-09-05T03:29:23.823Z,13.9
2017-09-05T03:30:26.240Z,13.9
2017-09-05T03:31:28.660Z,13.9
2017-09-05T03:32:31.085Z,13.9
2017-09-05T03:33:33.513Z,13.9
2017-09-05T03:34:35.930Z,13.9
2017-09-05T03:35:38.357Z,13.9
2017-09-05T03:36:40.773Z,13.9
2017-09-05T03:37:43.202Z,13.9
2017-09-05T03:38:45.622Z,13.9
2017-09-05T03:39:48.036Z,13.9
2017-09-05T03:40:50.458Z,13.9
2017-09-05T03:41:53.218Z,14
2017-09-05T03:42:55.790Z,14
2017-09-05T03:43:58.214Z,14
2017-09-05T03:45:00.623Z,14
2017-09-05T03:46:03.384Z,14
2017-09-05T03:47:05.810Z,14
2017-09-05T03:48:08.233Z,14
2017-09-05T03:49:10.649Z,14
2017-09-05T03:50:13.073Z,14
2017-09-05T03:51:15.492Z,14
2017-09-05T03:52:17.917Z,14
2017-09-05T03:53:20.345Z,14
2017-09-05T03:54:22.756Z,14
2017-09-05T03:55:25.177Z,14
2017-09-05T03:56:27.600Z,14
2017-09-05T03:57:30.024Z,14
2017-09-05T03:58:32.446Z,14
2017-09-05T03:59:34.860Z,14.1
2017-09-05T04:00:37.276Z,14.1
2017-09-05T04:01:39.712Z,14.1
2017-09-05T04:02:42.124Z,14.1
2017-09-05T04:03:44.879Z,14.1
2017-09-05T04:04:47.297Z,14.1
2017-09-05T04:05:49.723Z,14.1
2017-09-05T04:06:52.147Z,14.1
2017-09-05T04:07:54.569Z,14
2017-09-05T04:08:56.986Z,14.1
2017-09-05T04:09:59.404Z,14
2017-09-05T04:11:01.827Z,14
2017-09-05T04:12:04.252Z,14
2017-09-05T04:13:06.663Z,14.1
2017-09-05T04:14:09.086Z,14.1
2017-09-05T04:15:11.510Z,14.1
2017-09-05T04:16:13.936Z,14.1
2017-09-05T04:17:16.362Z,14.1
2017-09-05T04:18:18.780Z,14.1
2017-09-05T04:19:21.198Z,14.1
2017-09-05T04:20:23.625Z,14.2
2017-09-05T04:21:26.046Z,14.2
2017-09-05T04:22:28.463Z,14.2
2017-09-05T04:23:30.890Z,14.2
2017-09-05T04:24:33.308Z,14.2
2017-09-05T04:25:35.735Z,14.2
2017-09-05T04:26:38.161Z,14.2
2017-09-05T04:27:40.574Z,14.2
2017-09-05T04:28:43.703Z,14.2
2017-09-05T04:29:46.127Z,14.2
2017-09-05T04:30:48.553Z,14.2
2017-09-05T04:31:50.973Z,14.2
2017-09-05T04:32:53.394Z,14.2
2017-09-05T04:33:55.814Z,14.2
2017-09-05T04:34:58.232Z,14.2
2017-09-05T04:36:00.654Z,14.2
2017-09-05T04:37:03.090Z,14.2
2017-09-05T04:38:05.505Z,14.2
2017-09-05T04:39:07.921Z,14.2
2017-09-05T04:40:10.339Z,14.2
2017-09-05T04:41:12.759Z,14.2
2017-09-05T04:42:15.188Z,14.1
2017-09-05T04:43:17.607Z,14.1
2017-09-05T04:44:20.018Z,14.1
2017-09-05T04:45:22.442Z,14.1
2017-09-05T04:46:24.861Z,14.1
2017-09-05T04:47:27.277Z,14.1
2017-09-05T04:48:29.703Z,14.1
2017-09-05T04:49:32.117Z,14.1
2017-09-05T04:50:34.885Z,14.1
2017-09-05T04:51:37.316Z,14.1
2017-09-05T04:52:39.734Z,14.1
2017-09-05T04:53:42.152Z,14.2
2017-09-05T04:54:44.576Z,14.2
2017-09-05T04:55:47.003Z,14.2
2017-09-05T04:56:49.432Z,14.2
2017-09-05T04:57:51.854Z,14.2
2017-09-05T04:58:54.266Z,14.3
2017-09-05T04:59:56.696Z,14.3
2017-09-05T05:00:59.119Z,14.3
2017-09-05T05:02:01.537Z,14.3
2017-09-05T05:03:03.960Z,14.3
2017-09-05T05:04:06.377Z,14.4
2017-09-05T05:05:08.802Z,14.4
2017-09-05T05:06:11.575Z,14.4
2017-09-05T05:07:14.002Z,14.4
2017-09-05T05:08:16.418Z,14.5
2017-09-05T05:09:18.843Z,14.5
2017-09-05T05:10:21.265Z,14.5
2017-09-05T05:11:23.690Z,14.5
2017-09-05T05:12:26.116Z,14.5
2017-09-05T05:13:28.537Z,14.5
2017-09-05T05:14:30.957Z,14.6
2017-09-05T05:15:33.388Z,14.6
2017-09-05T05:16:35.812Z,14.6
2017-09-05T05:17:38.225Z,14.6
2017-09-05T05:18:40.654Z,14.6
2017-09-05T05:19:43.077Z,14.6
2017-09-05T05:20:45.499Z,14.6
2017-09-05T05:21:47.922Z,14.6
2017-09-05T05:22:50.339Z,14.6
2017-09-05T05:23:52.762Z,14.6
2017-09-05T05:24:55.196Z,14.6
2017-09-05T05:25:57.617Z,14.6
2017-09-05T05:27:00.045Z,14.6
2017-09-05T05:28:02.462Z,14.6
2017-09-05T05:29:04.883Z,14.7
2017-09-05T05:30:07.315Z,14.7
2017-09-05T05:31:09.735Z,14.7
2017-09-05T05:32:12.157Z,14.8
2017-09-05T05:33:14.578Z,14.8
2017-09-05T05:34:17.015Z,14.9
2017-09-05T05:35:19.433Z,14.9
2017-09-05T05:36:21.858Z,14.9
2017-09-05T05:37:24.616Z,14.9
2017-09-05T05:38:27.042Z,15
2017-09-05T05:39:29.464Z,15
2017-09-05T05:40:31.891Z,15.1
2017-09-05T05:41:34.312Z,15.1
2017-09-05T05:42:36.739Z,15.1
2017-09-05T05:43:39.167Z,15.2
2017-09-05T05:44:41.594Z,15.2
2017-09-05T05:45:44.359Z,15.2
2017-09-05T05:46:46.779Z,15.3
2017-09-05T05:47:49.197Z,15.3
2017-09-05T05:48:51.626Z,15.3
2017-09-05T05:49:54.073Z,15.3
2017-09-05T05:50:56.496Z,15.4
2017-09-05T05:51:58.888Z,15.4
2017-09-05T05:53:01.310Z,15.4
2017-09-05T05:54:03.734Z,15.4
2017-09-05T05:55:06.163Z,15.5
2017-09-05T05:56:08.585Z,15.5
2017-09-05T05:57:11.011Z,15.6
2017-09-05T05:58:13.430Z,15.6
2017-09-05T05:59:15.860Z,15.7
2017-09-05T06:00:18.276Z,15.7
2017-09-05T06:01:20.702Z,15.7
2017-09-05T06:02:23.131Z,15.8
2017-09-05T06:03:25.552Z,15.9
2017-09-05T06:04:27.975Z,15.9
2017-09-05T06:05:30.405Z,15.9
2017-09-05T06:06:33.165Z,15.9
2017-09-05T06:07:35.586Z,15.9
2017-09-05T06:08:38.010Z,16
2017-09-05T06:09:40.786Z,16
2017-09-05T06:10:43.209Z,16
2017-09-05T06:11:45.633Z,16.1
2017-09-05T06:12:48.054Z,16.2
2017-09-05T06:13:50.484Z,16.2
2017-09-05T06:14:52.908Z,16.2
2017-09-05T06:15:55.336Z,16.3
2017-09-05T06:16:57.749Z,16.3
2017-09-05T06:18:00.171Z,16.3
2017-09-05T06:19:02.599Z,16.4
2017-09-05T06:20:05.028Z,16.4
2017-09-05T06:21:07.448Z,16.5
2017-09-05T06:22:09.866Z,16.5
2017-09-05T06:23:12.287Z,16.6
2017-09-05T06:24:14.720Z,16.7
2017-09-05T06:25:17.142Z,16.7
2017-09-05T06:26:19.566Z,16.8
2017-09-05T06:27:22.335Z,16.8
2017-09-05T06:28:24.764Z,16.9
2017-09-05T06:29:27.183Z,17
2017-09-05T06:30:29.613Z,17
2017-09-05T06:31:32.029Z,17.1
2017-09-05T06:32:34.448Z,17.2
2017-09-05T06:33:36.873Z,17.2
2017-09-05T06:34:39.298Z,17.3
2017-09-05T06:35:41.720Z,17.3
2017-09-05T06:36:44.151Z,17.4
2017-09-05T06:37:46.579Z,17.4
2017-09-05T06:38:49.009Z,17.5
2017-09-05T06:39:51.435Z,17.6
2017-09-05T06:40:53.851Z,17.6
2017-09-05T06:41:56.277Z,17.7
2017-09-05T06:42:58.712Z,17.7
2017-09-05T06:44:01.138Z,17.8
2017-09-05T06:45:03.570Z,17.9
2017-09-05T06:46:05.995Z,17.9
2017-09-05T06:47:08.418Z,17.9
2017-09-05T06:48:10.850Z,18
2017-09-05T06:49:13.276Z,18
2017-09-05T06:50:15.703Z,18.1
2017-09-05T06:51:18.131Z,18.1
2017-09-05T06:52:20.549Z,18.2
2017-09-05T06:53:22.972Z,18.2
2017-09-05T06:54:25.403Z,18.3
2017-09-05T06:55:27.826Z,18.3
2017-09-05T06:56:30.594Z,18.4
2017-09-05T06:57:33.035Z,18.4
2017-09-05T06:58:35.461Z,18.5
2017-09-05T06:59:37.893Z,18.5
2017-09-05T07:00:40.328Z,18.6
2017-09-05T07:01:42.770Z,18.7
2017-09-05T07:02:45.181Z,18.7
2017-09-05T07:03:47.609Z,18.8
2017-09-05T07:04:50.043Z,18.9
2017-09-05T07:05:52.466Z,18.9
2017-09-05T07:06:54.891Z,19
2017-09-05T07:07:57.321Z,19
2017-09-05T07:08:59.749Z,19.2
2017-09-05T07:10:02.181Z,19.2
2017-09-05T07:11:04.610Z,19.3
2017-09-05T07:12:07.029Z,19.4
2017-09-05T07:13:09.462Z,19.4
2017-09-05T07:14:12.236Z,19.5
2017-09-05T07:15:14.669Z,19.6
2017-09-05T07:16:17.106Z,19.6
2017-09-05T07:17:19.532Z,19.7
2017-09-05T07:18:21.961Z,19.7
2017-09-05T07:19:24.397Z,19.8
2017-09-05T07:20:27.163Z,19.9
2017-09-05T07:21:29.586Z,20
2017-09-05T07:22:32.015Z,20
2017-09-05T07:23:34.462Z,20.1
2017-09-05T07:24:36.881Z,20.1
2017-09-05T07:25:39.314Z,20.2
2017-09-05T07:26:41.740Z,20.2
2017-09-05T07:27:44.168Z,20.3
2017-09-05T07:28:46.941Z,20.3
2017-09-05T07:29:49.376Z,20.4
2017-09-05T07:30:51.807Z,20.4
2017-09-05T07:31:54.232Z,20.4
2017-09-05T07:32:56.664Z,20.5
2017-09-05T07:33:59.090Z,20.5
2017-09-05T07:35:01.526Z,20.6
2017-09-05T07:36:03.967Z,20.6
2017-09-05T07:37:06.394Z,20.7
2017-09-05T07:38:08.831Z,20.7
2017-09-05T07:39:11.267Z,20.7
2017-09-05T07:40:13.691Z,20.7
2017-09-05T07:41:16.120Z,20.8
2017-09-05T07:42:18.549Z,20.8
2017-09-05T07:43:20.978Z,20.8
2017-09-05T07:44:23.406Z,20.9
2017-09-05T07:45:25.840Z,20.9
2017-09-05T07:46:28.268Z,20.9
2017-09-05T07:47:30.707Z,21
2017-09-05T07:48:33.141Z,21.1
2017-09-05T07:49:35.563Z,21.1
2017-09-05T07:50:37.993Z,21.2
2017-09-05T07:51:40.431Z,21.3
2017-09-05T07:52:42.862Z,21.3
2017-09-05T07:53:45.296Z,21.4
2017-09-05T07:54:47.720Z,21.4
2017-09-05T07:55:50.153Z,21.5
2017-09-05T07:56:52.590Z,21.6
2017-09-05T07:57:55.021Z,21.7
2017-09-05T07:58:57.444Z,21.8
2017-09-05T07:59:59.879Z,21.8
2017-09-05T08:01:02.311Z,21.8
2017-09-05T08:02:04.746Z,21.9
2017-09-05T08:03:07.177Z,22
2017-09-05T08:04:09.613Z,22
2017-09-05T08:05:12.385Z,22
2017-09-05T08:06:14.816Z,22
2017-09-05T08:07:17.244Z,22.1
2017-09-05T08:08:19.673Z,22.1
2017-09-05T08:09:22.105Z,22.2
2017-09-05T08:10:24.539Z,22.2
2017-09-05T08:11:26.969Z,22.3
2017-09-05T08:12:29.401Z,22.4
2017-09-05T08:13:31.837Z,22.4
2017-09-05T08:14:34.268Z,22.5
2017-09-05T08:15:36.705Z,22.6
2017-09-05T08:16:39.141Z,22.7
2017-09-05T08:17:41.577Z,22.7
2017-09-05T08:18:44.017Z,22.8
2017-09-05T08:19:46.451Z,22.9
2017-09-05T08:20:48.877Z,23
2017-09-05T08:21:51.308Z,23.1
2017-09-05T08:22:53.751Z,23.2
2017-09-05T08:23:56.181Z,23.3
2017-09-05T08:24:58.970Z,23.4
2017-09-05T08:26:01.410Z,23.5
2017-09-05T08:27:04.189Z,23.7
2017-09-05T08:28:06.627Z,23.7
2017-09-05T08:29:09.061Z,23.8
2017-09-05T08:30:11.494Z,23.9
2017-09-05T08:31:13.934Z,24.1
2017-09-05T08:32:16.368Z,24.2
2017-09-05T08:33:18.805Z,24.3
2017-09-05T08:34:21.236Z,24.5
2017-09-05T08:35:23.676Z,24.6
2017-09-05T08:36:26.110Z,24.8
2017-09-05T08:37:28.537Z,25
2017-09-05T08:38:31.310Z,25.1
2017-09-05T08:39:33.750Z,25.3
2017-09-05T08:40:36.183Z,25.5
2017-09-05T08:41:38.968Z,25.7
2017-09-05T08:42:41.399Z,25.9
2017-09-05T08:43:43.836Z,26.1
2017-09-05T08:44:46.636Z,26.3
2017-09-05T08:45:49.069Z,26.5
2017-09-05T08:46:51.519Z,26.7
2017-09-05T08:47:53.954Z,26.9
2017-09-05T08:48:56.388Z,27.1
2017-09-05T08:49:58.823Z,27.3
2017-09-05T08:51:01.261Z,27.5
2017-09-05T08:52:03.694Z,27.7
2017-09-05T08:53:06.137Z,27.8
2017-09-05T08:54:08.572Z,28
2017-09-05T08:55:11.014Z,28.2
2017-09-05T08:56:13.456Z,28.3
2017-09-05T08:57:15.901Z,28.5
2017-09-05T08:58:18.705Z,28.6
2017-09-05T08:59:21.148Z,28.7
2017-09-05T09:00:23.580Z,28.8
2017-09-05T09:01:26.030Z,29
2017-09-05T09:02:28.471Z,29.1
2017-09-05T09:03:30.908Z,29.2
2017-09-05T09:04:33.354Z,29.4
2017-09-05T09:05:35.793Z,29.5
2017-09-05T09:06:38.618Z,29.6
2017-09-05T09:07:41.071Z,29.8
2017-09-05T09:08:43.510Z,29.9
2017-09-05T09:09:45.954Z,30
2017-09-05T09:10:48.752Z,30.1
2017-09-05T09:11:51.190Z,30.3
2017-09-05T09:12:53.634Z,30.4
2017-09-05T09:13:56.082Z,30.5
2017-09-05T09:14:58.524Z,30.6
2017-09-05T09:16:00.972Z,30.7
2017-09-05T09:17:03.422Z,30.7
2017-09-05T09:18:05.857Z,30.8
2017-09-05T09:19:08.303Z,30.9
2017-09-05T09:20:10.753Z,30.9
2017-09-05T09:21:13.542Z,31.1
2017-09-05T09:22:15.990Z,31.2
2017-09-05T09:23:18.442Z,31.3
2017-09-05T09:24:21.312Z,31.4
2017-09-05T09:25:23.888Z,31.5
2017-09-05T09:26:26.332Z,31.7
2017-09-05T09:27:29.116Z,31.8
2017-09-05T09:28:31.565Z,31.8
2017-09-05T09:29:34.015Z,32
2017-09-05T09:30:36.800Z,32.1
2017-09-05T09:31:39.249Z,32.1
2017-09-05T09:32:41.702Z,32.2
2017-09-05T09:33:44.148Z,32.2
2017-09-05T09:34:46.596Z,32.3
2017-09-05T09:35:49.043Z,32.3
2017-09-05T09:36:51.498Z,32.3
2017-09-05T09:37:53.946Z,32.3
2017-09-05T09:38:56.398Z,32.4
2017-09-05T09:39:58.847Z,32.4
2017-09-05T09:41:01.300Z,32.5
2017-09-05T09:42:03.746Z,32.5
2017-09-05T09:43:06.194Z,32.6
2017-09-05T09:44:08.639Z,32.7
2017-09-05T09:45:11.450Z,32.8
2017-09-05T09:46:13.896Z,32.9
2017-09-05T09:47:16.347Z,33
2017-09-05T09:48:18.797Z,33.1
2017-09-05T09:49:21.248Z,33.2
2017-09-05T09:50:23.693Z,33.3
2017-09-05T09:51:26.137Z,33.3
2017-09-05T09:52:28.577Z,33.4
2017-09-05T09:53:31.046Z,33.4
2017-09-05T09:54:33.497Z,33.5
2017-09-05T09:55:35.939Z,33.5
2017-09-05T09:56:38.384Z,33.6
2017-09-05T09:57:40.832Z,33.6
2017-09-05T09:58:43.283Z,33.6
2017-09-05T09:59:45.733Z,33.7
2017-09-05T10:00:48.188Z,33.7
2017-09-05T10:01:50.632Z,33.7
2017-09-05T10:02:53.081Z,33.7
2017-09-05T10:03:55.527Z,33.7
2017-09-05T10:04:57.979Z,33.7
2017-09-05T10:06:00.411Z,33.7
2017-09-05T10:07:02.871Z,33.7
2017-09-05T10:08:05.310Z,33.8
2017-09-05T10:09:07.756Z,33.8
2017-09-05T10:10:10.207Z,33.8
2017-09-05T10:11:12.660Z,33.8
2017-09-05T10:12:15.818Z,33.9
2017-09-05T10:13:18.609Z,33.9
2017-09-05T10:14:21.084Z,34
2017-09-05T10:15:23.506Z,34
2017-09-05T10:16:25.952Z,34
2017-09-05T10:17:28.399Z,34
2017-09-05T10:18:31.180Z,34
2017-09-05T10:19:33.637Z,34
2017-09-05T10:20:36.086Z,34
2017-09-05T10:21:38.534Z,34
2017-09-05T10:22:41.320Z,34
2017-09-05T10:23:43.765Z,34
2017-09-05T10:24:46.212Z,34.1
2017-09-05T10:25:48.663Z,34.2
2017-09-05T10:26:51.102Z,34.3
2017-09-05T10:27:53.891Z,34.3
2017-09-05T10:28:56.346Z,34.3
2017-09-05T10:29:58.790Z,34.4
2017-09-05T10:31:01.237Z,34.4
2017-09-05T10:32:04.040Z,34.5
2017-09-05T10:33:06.489Z,34.6
2017-09-05T10:34:08.931Z,34.6
2017-09-05T10:35:11.381Z,34.7
2017-09-05T10:36:13.835Z,34.7
2017-09-05T10:37:16.281Z,34.8
2017-09-05T10:38:18.740Z,34.8
2017-09-05T10:39:21.184Z,34.9
2017-09-05T10:40:23.632Z,34.9
2017-09-05T10:41:26.089Z,34.9
2017-09-05T10:42:28.539Z,34.8
2017-09-05T10:43:30.986Z,34.8
2017-09-05T10:44:33.776Z,34.8
2017-09-05T10:45:36.229Z,34.7
2017-09-05T10:46:38.683Z,34.7
2017-09-05T10:47:41.127Z,34.8
2017-09-05T10:48:43.569Z,34.8
2017-09-05T10:49:46.018Z,34.8
2017-09-05T10:50:48.472Z,34.9
2017-09-05T10:51:50.919Z,35
2017-09-05T10:52:53.369Z,35
2017-09-05T10:53:55.821Z,35.1
2017-09-05T10:54:58.279Z,35.2
2017-09-05T10:56:00.723Z,35.2
2017-09-05T10:57:03.181Z,35.3
2017-09-05T10:58:05.960Z,35.3
2017-09-05T10:59:08.759Z,35.4
2017-09-05T11:00:11.206Z,35.5
2017-09-05T11:01:13.657Z,35.5
2017-09-05T11:02:16.113Z,35.6
2017-09-05T11:03:18.915Z,35.6
2017-09-05T11:04:21.362Z,35.6
2017-09-05T11:05:23.813Z,35.6
2017-09-05T11:06:26.254Z,35.6
2017-09-05T11:07:28.717Z,35.6
2017-09-05T11:08:31.166Z,35.6
2017-09-05T11:09:33.610Z,35.6
2017-09-05T11:10:36.059Z,35.7
2017-09-05T11:11:38.514Z,35.7
2017-09-05T11:12:40.967Z,35.7
2017-09-05T11:13:43.424Z,35.7
2017-09-05T11:14:45.864Z,35.8
2017-09-05T11:15:48.315Z,35.8
2017-09-05T11:16:50.771Z,35.9
2017-09-05T11:17:53.223Z,35.9
2017-09-05T11:18:55.672Z,35.9
2017-09-05T11:19:58.129Z,35.8
2017-09-05T11:21:00.573Z,35.8
2017-09-05T11:22:03.375Z,35.7
2017-09-05T11:23:05.820Z,35.6
2017-09-05T11:24:08.261Z,35.5
2017-09-05T11:25:10.714Z,35.4
2017-09-05T11:26:13.168Z,35.3
2017-09-05T11:27:15.665Z,35.2
2017-09-05T11:28:18.113Z,35.1
2017-09-05T11:29:20.565Z,35
2017-09-05T11:30:23.046Z,34.9
2017-09-05T11:31:25.460Z,34.8
2017-09-05T11:32:27.915Z,34.8
2017-09-05T11:33:30.361Z,34.8
2017-09-05T11:34:32.819Z,34.7
2017-09-05T11:35:35.275Z,34.7
2017-09-05T11:36:37.727Z,34.7
2017-09-05T11:37:40.181Z,34.6
2017-09-05T11:38:42.641Z,34.6
2017-09-05T11:39:45.087Z,34.6
2017-09-05T11:40:47.537Z,34.6
2017-09-05T11:41:49.982Z,34.7
2017-09-05T11:42:52.440Z,34.6
2017-09-05T11:43:54.895Z,34.7
2017-09-05T11:44:57.342Z,34.7
2017-09-05T11:45:59.782Z,34.7
2017-09-05T11:47:02.239Z,34.7
2017-09-05T11:48:04.687Z,34.7
2017-09-05T11:49:07.144Z,34.7
2017-09-05T11:50:09.600Z,34.7
2017-09-05T11:51:12.047Z,34.7
2017-09-05T11:52:14.504Z,34.7
2017-09-05T11:53:16.958Z,34.6
2017-09-05T11:54:19.404Z,34.7
2017-09-05T11:55:21.858Z,34.6
2017-09-05T11:56:24.305Z,34.6
2017-09-05T11:57:26.758Z,34.6
2017-09-05T11:58:29.203Z,34.7
2017-09-05T11:59:31.648Z,34.8
2017-09-05T12:00:34.103Z,34.8
2017-09-05T12:01:36.551Z,34.8
2017-09-05T12:02:38.999Z,34.8
2017-09-05T12:03:41.450Z,34.8
2017-09-05T12:04:43.923Z,34.8
2017-09-05T12:05:46.379Z,34.9
2017-09-05T12:06:48.842Z,34.9
2017-09-05T12:07:51.646Z,34.9
2017-09-05T12:08:54.094Z,35
2017-09-05T12:09:56.880Z,35
2017-09-05T12:10:59.333Z,35
2017-09-05T12:12:01.779Z,35
2017-09-05T12:13:04.237Z,35
2017-09-05T12:14:06.681Z,35
2017-09-05T12:15:09.133Z,34.9
2017-09-05T12:16:11.583Z,34.9
2017-09-05T12:17:14.034Z,34.9
2017-09-05T12:18:16.482Z,34.9
2017-09-05T12:19:18.938Z,34.9
2017-09-05T12:20:21.388Z,34.8
2017-09-05T12:21:23.849Z,34.8
2017-09-05T12:22:26.297Z,34.7
2017-09-05T12:23:29.427Z,34.6
2017-09-05T12:24:31.880Z,34.6
2017-09-05T12:25:34.336Z,34.5
2017-09-05T12:26:36.780Z,34.6
2017-09-05T12:27:39.231Z,34.5
2017-09-05T12:28:42.031Z,34.6
2017-09-05T12:29:44.488Z,34.6
2017-09-05T12:30:46.932Z,34.6
2017-09-05T12:31:49.386Z,34.5
2017-09-05T12:32:52.183Z,34.5
2017-09-05T12:33:54.630Z,34.5
2017-09-05T12:34:57.080Z,34.5
2017-09-05T12:35:59.530Z,34.5
2017-09-05T12:37:01.971Z,34.5
2017-09-05T12:38:04.424Z,34.4
2017-09-05T12:39:06.872Z,34.3
2017-09-05T12:40:09.311Z,34.3
2017-09-05T12:41:11.761Z,34.2
2017-09-05T12:42:14.216Z,34.2
2017-09-05T12:43:16.671Z,34.1
2017-09-05T12:44:19.132Z,34.1
2017-09-05T12:45:21.574Z,34
2017-09-05T12:46:24.022Z,33.9
2017-09-05T12:47:26.477Z,33.8
2017-09-05T12:48:28.928Z,33.8
2017-09-05T12:49:31.382Z,33.7
2017-09-05T12:50:33.830Z,33.6
2017-09-05T12:51:36.278Z,33.6
2017-09-05T12:52:38.725Z,33.6
2017-09-05T12:53:41.174Z,33.6
2017-09-05T12:54:43.616Z,33.6
2017-09-05T12:55:46.064Z,33.5
2017-09-05T12:56:48.516Z,33.6
2017-09-05T12:57:50.960Z,33.6
2017-09-05T12:58:53.414Z,33.6
2017-09-05T12:59:56.199Z,33.7
2017-09-05T13:00:58.647Z,33.8
2017-09-05T13:02:01.094Z,33.8
2017-09-05T13:03:03.548Z,33.9
2017-09-05T13:04:06.339Z,33.9
2017-09-05T13:05:08.794Z,33.9
2017-09-05T13:06:11.239Z,33.9
2017-09-05T13:07:13.687Z,33.9
2017-09-05T13:08:16.136Z,33.9
2017-09-05T13:09:18.585Z,33.9
2017-09-05T13:10:21.709Z,33.9
2017-09-05T13:11:24.158Z,33.9
2017-09-05T13:12:26.601Z,33.9
2017-09-05T13:13:29.398Z,34
2017-09-05T13:14:31.846Z,34
2017-09-05T13:15:34.295Z,34
2017-09-05T13:16:36.740Z,34
2017-09-05T13:17:39.201Z,34
2017-09-05T13:18:41.652Z,34
2017-09-05T13:19:44.454Z,34
2017-09-05T13:20:46.895Z,34
2017-09-05T13:21:49.343Z,33.9
2017-09-05T13:22:51.793Z,34
2017-09-05T13:23:54.241Z,33.9
2017-09-05T13:24:56.687Z,33.9
2017-09-05T13:25:59.146Z,33.9
2017-09-05T13:27:01.590Z,33.8
2017-09-05T13:28:04.031Z,33.8
2017-09-05T13:29:06.840Z,33.7
2017-09-05T13:30:09.645Z,33.6
2017-09-05T13:31:12.082Z,33.6
2017-09-05T13:32:14.528Z,33.5
2017-09-05T13:33:16.971Z,33.4
2017-09-05T13:34:19.419Z,33.4
2017-09-05T13:35:21.871Z,33.4
2017-09-05T13:36:24.319Z,33.3
2017-09-05T13:37:26.756Z,33.3
2017-09-05T13:38:29.544Z,33.2
2017-09-05T13:39:32.003Z,33.2
2017-09-05T13:40:34.793Z,33.1
2017-09-05T13:41:37.244Z,33
2017-09-05T13:42:39.682Z,33
2017-09-05T13:43:42.470Z,33
2017-09-05T13:44:44.926Z,33
2017-09-05T13:45:47.364Z,33
2017-09-05T13:46:49.807Z,33
2017-09-05T13:47:52.255Z,33
2017-09-05T13:48:54.710Z,33
2017-09-05T13:49:57.161Z,33.1
2017-09-05T13:50:59.606Z,33.1
2017-09-05T13:52:02.382Z,33.2
2017-09-05T13:53:04.833Z,33.3
2017-09-05T13:54:07.289Z,33.3
2017-09-05T13:55:09.733Z,33.4
2017-09-05T13:56:12.172Z,33.5
2017-09-05T13:57:14.616Z,33.5
2017-09-05T13:58:17.065Z,33.5